sensor_id;sensor_type;location;lat;lon;timestamp;temperature;humidity
20288;DHT22;10303;51.960;8.372;2022-12-20T00:01:13;13.10;99.90
20288;DHT22;10303;51.960;8.372;2022-12-20T00:03:44;13.10;99.90
20288;DHT22;10303;51.960;8.372;2022-12-20T00:06:11;13.20;99.90
20288;DHT22;10303;51.960;8.372;2022-12-20T00:08:39;13.20;99.90
20288;DHT22;10303;51.960;8.372;2022-12-20T00:11:06;13.20;99.90
20288;DHT22;10303;51.960;8.372;2022-12-20T00:13:33;13.30;99.90
20288;DHT22;10303;51.960;8.372;2022-12-20T00:16:15;13.30;99.90
20288;DHT22;10303;51.960;8.372;2022-12-20T00:18:45;13.30;99.90
20288;DHT22;10303;51.960;8.372;2022-12-20T00:21:13;13.30;99.90
20288;DHT22;10303;51.960;8.372;2022-12-20T00:23:40;13.40;99.90
20288;DHT22;10303;51.960;8.372;2022-12-20T00:26:09;13.40;99.90
20288;DHT22;10303;51.960;8.372;2022-12-20T00:28:38;13.40;99.90
20288;DHT22;10303;51.960;8.372;2022-12-20T00:31:07;13.40;99.90
20288;DHT22;10303;51.960;8.372;2022-12-20T00:33:35;13.40;99.90
20288;DHT22;10303;51.960;8.372;2022-12-20T00:36:04;13.50;99.90
20288;DHT22;10303;51.960;8.372;2022-12-20T00:38:31;13.50;99.90
20288;DHT22;10303;51.960;8.372;2022-12-20T00:43:30;13.40;99.90
20288;DHT22;10303;51.960;8.372;2022-12-20T00:45:57;13.50;99.90
20288;DHT22;10303;51.960;8.372;2022-12-20T00:48:23;13.50;99.90
20288;DHT22;10303;51.960;8.372;2022-12-20T00:50:50;13.50;99.90
20288;DHT22;10303;51.960;8.372;2022-12-20T00:53:18;13.50;99.90
20288;DHT22;10303;51.960;8.372;2022-12-20T00:55:45;13.50;99.90
20288;DHT22;10303;51.960;8.372;2022-12-20T00:58:12;13.50;99.90
20288;DHT22;10303;51.960;8.372;2022-12-20T01:00:39;13.50;99.90
20288;DHT22;10303;51.960;8.372;2022-12-20T01:03:06;13.50;99.90
20288;DHT22;10303;51.960;8.372;2022-12-20T01:05:33;13.50;99.90
20288;DHT22;10303;51.960;8.372;2022-12-20T01:08:00;13.60;99.90
20288;DHT22;10303;51.960;8.372;2022-12-20T01:10:27;13.60;99.90
20288;DHT22;10303;51.960;8.372;2022-12-20T01:12:53;13.60;99.90
20288;DHT22;10303;51.960;8.372;2022-12-20T01:15:19;13.60;99.90
20288;DHT22;10303;51.960;8.372;2022-12-20T01:17:46;13.60;99.90
20288;DHT22;10303;51.960;8.372;2022-12-20T01:20:13;13.60;99.90
20288;DHT22;10303;51.960;8.372;2022-12-20T01:22:39;13.60;99.90
20288;DHT22;10303;51.960;8.372;2022-12-20T01:25:05;13.60;99.90
20288;DHT22;10303;51.960;8.372;2022-12-20T01:27:31;13.60;99.90
20288;DHT22;10303;51.960;8.372;2022-12-20T01:29:57;13.70;99.90
20288;DHT22;10303;51.960;8.372;2022-12-20T01:32:23;13.60;99.90
20288;DHT22;10303;51.960;8.372;2022-12-20T01:34:49;13.70;99.90
20288;DHT22;10303;51.960;8.372;2022-12-20T01:37:16;13.70;99.90
20288;DHT22;10303;51.960;8.372;2022-12-20T01:39:41;13.70;99.90
20288;DHT22;10303;51.960;8.372;2022-12-20T01:42:15;13.70;99.90
20288;DHT22;10303;51.960;8.372;2022-12-20T01:47:09;13.70;99.90
20288;DHT22;10303;51.960;8.372;2022-12-20T01:49:41;13.70;99.90
20288;DHT22;10303;51.960;8.372;2022-12-20T01:52:43;13.80;99.90
20288;DHT22;10303;51.960;8.372;2022-12-20T01:55:20;13.80;99.90
20288;DHT22;10303;51.960;8.372;2022-12-20T01:57:56;13.80;99.90
20288;DHT22;10303;51.960;8.372;2022-12-20T02:00:27;13.90;99.90
20288;DHT22;10303;51.960;8.372;2022-12-20T02:02:54;13.90;99.90
20288;DHT22;10303;51.960;8.372;2022-12-20T02:05:25;13.90;99.90
20288;DHT22;10303;51.960;8.372;2022-12-20T02:07:53;13.90;99.90
20288;DHT22;10303;51.960;8.372;2022-12-20T02:10:24;14.00;99.90
20288;DHT22;10303;51.960;8.372;2022-12-20T02:13:03;14.00;99.90
20288;DHT22;10303;51.960;8.372;2022-12-20T02:15:42;14.00;99.90
20288;DHT22;10303;51.960;8.372;2022-12-20T02:18:33;14.10;99.90
20288;DHT22;10303;51.960;8.372;2022-12-20T02:24:18;14.20;99.90
20288;DHT22;10303;51.960;8.372;2022-12-20T02:27:14;14.20;99.90
20288;DHT22;10303;51.960;8.372;2022-12-20T02:30:18;14.20;99.90
20288;DHT22;10303;51.960;8.372;2022-12-20T02:33:03;14.20;99.90
20288;DHT22;10303;51.960;8.372;2022-12-20T02:35:34;14.20;99.90
20288;DHT22;10303;51.960;8.372;2022-12-20T02:38:23;14.20;99.90
20288;DHT22;10303;51.960;8.372;2022-12-20T02:44:00;14.20;99.90
20288;DHT22;10303;51.960;8.372;2022-12-20T02:46:49;14.30;99.90
20288;DHT22;10303;51.960;8.372;2022-12-20T02:49:18;14.30;99.90
20288;DHT22;10303;51.960;8.372;2022-12-20T02:51:51;14.30;99.90
20288;DHT22;10303;51.960;8.372;2022-12-20T02:54:21;14.30;99.90
20288;DHT22;10303;51.960;8.372;2022-12-20T02:57:03;14.20;99.90
20288;DHT22;10303;51.960;8.372;2022-12-20T03:02:32;14.30;99.90
20288;DHT22;10303;51.960;8.372;2022-12-20T03:05:23;14.30;99.90
20288;DHT22;10303;51.960;8.372;2022-12-20T03:07:52;14.30;99.90
20288;DHT22;10303;51.960;8.372;2022-12-20T03:10:21;14.30;99.90
20288;DHT22;10303;51.960;8.372;2022-12-20T03:12:48;14.30;99.90
20288;DHT22;10303;51.960;8.372;2022-12-20T03:15:14;14.30;99.90
20288;DHT22;10303;51.960;8.372;2022-12-20T03:17:40;14.40;99.90
20288;DHT22;10303;51.960;8.372;2022-12-20T03:20:07;14.40;99.90
20288;DHT22;10303;51.960;8.372;2022-12-20T03:22:36;14.40;99.90
20288;DHT22;10303;51.960;8.372;2022-12-20T03:25:03;14.40;99.90
20288;DHT22;10303;51.960;8.372;2022-12-20T03:27:32;14.40;99.90
20288;DHT22;10303;51.960;8.372;2022-12-20T03:29:59;14.50;99.90
20288;DHT22;10303;51.960;8.372;2022-12-20T03:32:26;14.50;99.90
20288;DHT22;10303;51.960;8.372;2022-12-20T03:34:54;14.50;99.90
20288;DHT22;10303;51.960;8.372;2022-12-20T03:37:27;14.50;99.90
20288;DHT22;10303;51.960;8.372;2022-12-20T03:39:54;14.50;99.90
20288;DHT22;10303;51.960;8.372;2022-12-20T03:42:20;14.50;99.90
20288;DHT22;10303;51.960;8.372;2022-12-20T03:44:46;14.50;99.90
20288;DHT22;10303;51.960;8.372;2022-12-20T03:47:12;14.50;99.90
20288;DHT22;10303;51.960;8.372;2022-12-20T03:49:39;14.50;99.90
20288;DHT22;10303;51.960;8.372;2022-12-20T03:52:05;14.50;99.90
20288;DHT22;10303;51.960;8.372;2022-12-20T03:54:31;14.50;99.90
20288;DHT22;10303;51.960;8.372;2022-12-20T03:57:09;14.50;99.90
20288;DHT22;10303;51.960;8.372;2022-12-20T03:59:35;14.60;99.90
20288;DHT22;10303;51.960;8.372;2022-12-20T04:02:02;14.60;99.90
20288;DHT22;10303;51.960;8.372;2022-12-20T04:04:29;14.60;99.90
20288;DHT22;10303;51.960;8.372;2022-12-20T04:06:55;14.60;99.90
20288;DHT22;10303;51.960;8.372;2022-12-20T04:09:21;14.60;99.90
20288;DHT22;10303;51.960;8.372;2022-12-20T04:11:52;14.60;99.90
20288;DHT22;10303;51.960;8.372;2022-12-20T04:14:19;14.70;99.90
20288;DHT22;10303;51.960;8.372;2022-12-20T04:16:45;14.60;99.90
20288;DHT22;10303;51.960;8.372;2022-12-20T04:19:12;14.60;99.90
20288;DHT22;10303;51.960;8.372;2022-12-20T04:21:42;14.70;99.90
20288;DHT22;10303;51.960;8.372;2022-12-20T04:24:08;14.60;99.90
20288;DHT22;10303;51.960;8.372;2022-12-20T04:26:42;14.70;99.90
20288;DHT22;10303;51.960;8.372;2022-12-20T04:29:10;14.60;99.90
20288;DHT22;10303;51.960;8.372;2022-12-20T04:31:36;14.60;99.90
20288;DHT22;10303;51.960;8.372;2022-12-20T04:34:03;14.60;99.90
20288;DHT22;10303;51.960;8.372;2022-12-20T04:36:31;14.60;99.90
20288;DHT22;10303;51.960;8.372;2022-12-20T04:39:00;14.60;99.90
20288;DHT22;10303;51.960;8.372;2022-12-20T04:41:29;14.60;99.90
20288;DHT22;10303;51.960;8.372;2022-12-20T04:44:01;14.60;99.90
20288;DHT22;10303;51.960;8.372;2022-12-20T04:46:35;14.60;99.90
20288;DHT22;10303;51.960;8.372;2022-12-20T04:49:02;14.60;99.90
20288;DHT22;10303;51.960;8.372;2022-12-20T04:51:31;14.50;99.90
20288;DHT22;10303;51.960;8.372;2022-12-20T04:53:57;14.50;99.90
20288;DHT22;10303;51.960;8.372;2022-12-20T04:56:53;14.50;99.90
20288;DHT22;10303;51.960;8.372;2022-12-20T04:59:21;14.60;99.90
20288;DHT22;10303;51.960;8.372;2022-12-20T05:01:50;14.50;99.90
20288;DHT22;10303;51.960;8.372;2022-12-20T05:04:31;14.50;99.90
20288;DHT22;10303;51.960;8.372;2022-12-20T05:06:57;14.50;99.90
20288;DHT22;10303;51.960;8.372;2022-12-20T05:09:23;14.50;99.90
20288;DHT22;10303;51.960;8.372;2022-12-20T05:11:53;14.50;99.90
20288;DHT22;10303;51.960;8.372;2022-12-20T05:14:19;14.50;99.90
20288;DHT22;10303;51.960;8.372;2022-12-20T05:16:45;14.40;99.90
20288;DHT22;10303;51.960;8.372;2022-12-20T05:19:11;14.40;99.90
20288;DHT22;10303;51.960;8.372;2022-12-20T05:21:40;14.40;99.90
20288;DHT22;10303;51.960;8.372;2022-12-20T05:24:25;14.40;99.90
20288;DHT22;10303;51.960;8.372;2022-12-20T05:27:30;14.30;99.90
20288;DHT22;10303;51.960;8.372;2022-12-20T05:29:57;14.30;99.90
20288;DHT22;10303;51.960;8.372;2022-12-20T05:32:24;14.30;99.90
20288;DHT22;10303;51.960;8.372;2022-12-20T05:34:52;14.30;99.90
20288;DHT22;10303;51.960;8.372;2022-12-20T05:37:19;14.30;99.90
20288;DHT22;10303;51.960;8.372;2022-12-20T05:39:45;14.20;99.90
20288;DHT22;10303;51.960;8.372;2022-12-20T05:42:17;14.20;99.90
20288;DHT22;10303;51.960;8.372;2022-12-20T05:44:43;14.20;99.90
20288;DHT22;10303;51.960;8.372;2022-12-20T05:47:09;14.20;99.90
20288;DHT22;10303;51.960;8.372;2022-12-20T05:49:37;14.20;99.90
20288;DHT22;10303;51.960;8.372;2022-12-20T05:52:06;14.20;99.90
20288;DHT22;10303;51.960;8.372;2022-12-20T05:54:34;14.10;99.90
20288;DHT22;10303;51.960;8.372;2022-12-20T05:57:08;14.10;99.90
20288;DHT22;10303;51.960;8.372;2022-12-20T05:59:37;14.10;99.90
20288;DHT22;10303;51.960;8.372;2022-12-20T06:02:07;14.10;99.90
20288;DHT22;10303;51.960;8.372;2022-12-20T06:04:34;14.10;99.90
20288;DHT22;10303;51.960;8.372;2022-12-20T06:07:04;14.10;99.90
20288;DHT22;10303;51.960;8.372;2022-12-20T06:09:32;14.10;99.90
20288;DHT22;10303;51.960;8.372;2022-12-20T06:12:05;14.10;99.90
20288;DHT22;10303;51.960;8.372;2022-12-20T06:14:33;14.10;99.90
20288;DHT22;10303;51.960;8.372;2022-12-20T06:17:00;14.00;99.90
20288;DHT22;10303;51.960;8.372;2022-12-20T06:19:26;14.00;99.90
20288;DHT22;10303;51.960;8.372;2022-12-20T06:21:55;14.10;99.90
20288;DHT22;10303;51.960;8.372;2022-12-20T06:24:31;14.00;99.90
20288;DHT22;10303;51.960;8.372;2022-12-20T06:26:58;14.00;99.90
20288;DHT22;10303;51.960;8.372;2022-12-20T06:29:25;14.00;99.90
20288;DHT22;10303;51.960;8.372;2022-12-20T06:31:59;14.00;99.90
20288;DHT22;10303;51.960;8.372;2022-12-20T06:34:26;14.00;99.90
20288;DHT22;10303;51.960;8.372;2022-12-20T06:36:53;14.00;99.90
20288;DHT22;10303;51.960;8.372;2022-12-20T06:39:24;14.00;99.90
20288;DHT22;10303;51.960;8.372;2022-12-20T06:42:00;14.00;99.90
20288;DHT22;10303;51.960;8.372;2022-12-20T06:44:26;13.90;99.90
20288;DHT22;10303;51.960;8.372;2022-12-20T06:46:52;13.90;99.90
20288;DHT22;10303;51.960;8.372;2022-12-20T06:49:19;13.90;99.90
20288;DHT22;10303;51.960;8.372;2022-12-20T06:51:47;13.90;99.90
20288;DHT22;10303;51.960;8.372;2022-12-20T06:54:14;13.90;99.90
20288;DHT22;10303;51.960;8.372;2022-12-20T06:56:40;13.90;99.90
20288;DHT22;10303;51.960;8.372;2022-12-20T06:59:08;13.90;99.90
20288;DHT22;10303;51.960;8.372;2022-12-20T07:01:34;13.90;99.90
20288;DHT22;10303;51.960;8.372;2022-12-20T07:04:00;13.90;99.90
20288;DHT22;10303;51.960;8.372;2022-12-20T07:06:26;13.90;99.90
20288;DHT22;10303;51.960;8.372;2022-12-20T07:08:54;13.90;99.90
20288;DHT22;10303;51.960;8.372;2022-12-20T07:11:20;13.90;99.90
20288;DHT22;10303;51.960;8.372;2022-12-20T07:13:46;13.90;99.90
20288;DHT22;10303;51.960;8.372;2022-12-20T07:16:14;13.90;99.90
20288;DHT22;10303;51.960;8.372;2022-12-20T07:18:40;13.90;99.90
20288;DHT22;10303;51.960;8.372;2022-12-20T07:21:06;13.90;99.90
20288;DHT22;10303;51.960;8.372;2022-12-20T07:23:32;13.80;99.90
20288;DHT22;10303;51.960;8.372;2022-12-20T07:25:59;13.80;99.90
20288;DHT22;10303;51.960;8.372;2022-12-20T07:28:26;13.80;99.90
20288;DHT22;10303;51.960;8.372;2022-12-20T07:30:53;13.80;99.90
20288;DHT22;10303;51.960;8.372;2022-12-20T07:33:20;13.80;99.90
20288;DHT22;10303;51.960;8.372;2022-12-20T07:35:46;13.80;99.90
20288;DHT22;10303;51.960;8.372;2022-12-20T07:38:12;13.80;99.90
20288;DHT22;10303;51.960;8.372;2022-12-20T07:40:42;13.80;99.90
20288;DHT22;10303;51.960;8.372;2022-12-20T07:43:09;13.80;99.90
20288;DHT22;10303;51.960;8.372;2022-12-20T07:45:35;13.80;99.90
20288;DHT22;10303;51.960;8.372;2022-12-20T07:48:03;13.80;99.90
20288;DHT22;10303;51.960;8.372;2022-12-20T07:50:30;13.80;99.90
20288;DHT22;10303;51.960;8.372;2022-12-20T07:52:58;13.80;99.90
20288;DHT22;10303;51.960;8.372;2022-12-20T07:55:25;13.80;99.90
20288;DHT22;10303;51.960;8.372;2022-12-20T07:57:57;13.80;99.90
20288;DHT22;10303;51.960;8.372;2022-12-20T08:00:26;13.80;99.90
20288;DHT22;10303;51.960;8.372;2022-12-20T08:03:00;13.80;99.90
20288;DHT22;10303;51.960;8.372;2022-12-20T08:05:34;13.80;99.90
20288;DHT22;10303;51.960;8.372;2022-12-20T08:08:02;13.80;99.90
20288;DHT22;10303;51.960;8.372;2022-12-20T08:10:28;13.70;99.90
20288;DHT22;10303;51.960;8.372;2022-12-20T08:12:56;13.70;99.90
20288;DHT22;10303;51.960;8.372;2022-12-20T08:15:23;13.70;99.90
20288;DHT22;10303;51.960;8.372;2022-12-20T08:17:50;13.60;99.90
20288;DHT22;10303;51.960;8.372;2022-12-20T08:20:16;13.60;99.90
20288;DHT22;10303;51.960;8.372;2022-12-20T08:22:42;13.60;99.90
20288;DHT22;10303;51.960;8.372;2022-12-20T08:25:08;13.60;99.90
20288;DHT22;10303;51.960;8.372;2022-12-20T08:27:36;13.50;99.90
20288;DHT22;10303;51.960;8.372;2022-12-20T08:30:03;13.50;99.90
20288;DHT22;10303;51.960;8.372;2022-12-20T08:32:30;13.50;99.90
20288;DHT22;10303;51.960;8.372;2022-12-20T08:34:56;13.50;99.90
20288;DHT22;10303;51.960;8.372;2022-12-20T08:37:22;13.50;99.90
20288;DHT22;10303;51.960;8.372;2022-12-20T08:39:47;13.50;99.90
20288;DHT22;10303;51.960;8.372;2022-12-20T08:42:14;13.40;99.90
20288;DHT22;10303;51.960;8.372;2022-12-20T08:44:40;13.40;99.90
20288;DHT22;10303;51.960;8.372;2022-12-20T08:47:06;13.40;99.90
20288;DHT22;10303;51.960;8.372;2022-12-20T08:49:32;13.40;99.90
20288;DHT22;10303;51.960;8.372;2022-12-20T08:51:58;13.40;99.90
20288;DHT22;10303;51.960;8.372;2022-12-20T08:54:24;13.30;99.90
20288;DHT22;10303;51.960;8.372;2022-12-20T08:56:50;13.30;99.90
20288;DHT22;10303;51.960;8.372;2022-12-20T08:59:16;13.30;99.90
20288;DHT22;10303;51.960;8.372;2022-12-20T09:01:42;13.30;99.90
20288;DHT22;10303;51.960;8.372;2022-12-20T09:04:09;13.20;99.90
20288;DHT22;10303;51.960;8.372;2022-12-20T09:06:36;13.20;99.90
20288;DHT22;10303;51.960;8.372;2022-12-20T09:09:04;13.20;99.90
20288;DHT22;10303;51.960;8.372;2022-12-20T09:11:30;13.20;99.90
20288;DHT22;10303;51.960;8.372;2022-12-20T09:13:57;13.20;99.90
20288;DHT22;10303;51.960;8.372;2022-12-20T09:16:25;13.20;99.90
20288;DHT22;10303;51.960;8.372;2022-12-20T09:18:55;13.20;99.90
20288;DHT22;10303;51.960;8.372;2022-12-20T09:21:22;13.20;99.90
20288;DHT22;10303;51.960;8.372;2022-12-20T09:23:53;13.20;99.90
20288;DHT22;10303;51.960;8.372;2022-12-20T09:26:21;13.20;99.90
20288;DHT22;10303;51.960;8.372;2022-12-20T09:28:49;13.20;99.90
20288;DHT22;10303;51.960;8.372;2022-12-20T09:31:18;13.20;99.90
20288;DHT22;10303;51.960;8.372;2022-12-20T09:33:46;13.30;99.90
20288;DHT22;10303;51.960;8.372;2022-12-20T09:36:18;13.30;99.90
20288;DHT22;10303;51.960;8.372;2022-12-20T09:38:46;13.30;99.90
20288;DHT22;10303;51.960;8.372;2022-12-20T09:43:54;13.40;99.90
20288;DHT22;10303;51.960;8.372;2022-12-20T09:46:23;13.40;99.90
20288;DHT22;10303;51.960;8.372;2022-12-20T09:48:51;13.40;99.90
20288;DHT22;10303;51.960;8.372;2022-12-20T09:56:57;13.50;99.90
20288;DHT22;10303;51.960;8.372;2022-12-20T09:59:44;13.50;99.90
20288;DHT22;10303;51.960;8.372;2022-12-20T10:02:19;13.60;99.90
20288;DHT22;10303;51.960;8.372;2022-12-20T10:04:48;13.60;99.90
20288;DHT22;10303;51.960;8.372;2022-12-20T10:07:40;13.60;99.90
20288;DHT22;10303;51.960;8.372;2022-12-20T10:10:29;13.70;99.90
20288;DHT22;10303;51.960;8.372;2022-12-20T10:13:24;13.70;99.90
20288;DHT22;10303;51.960;8.372;2022-12-20T10:24:55;13.90;99.90
20288;DHT22;10303;51.960;8.372;2022-12-20T10:27:26;13.90;99.90
20288;DHT22;10303;51.960;8.372;2022-12-20T10:29:52;14.00;99.90
20288;DHT22;10303;51.960;8.372;2022-12-20T10:32:22;14.00;99.90
20288;DHT22;10303;51.960;8.372;2022-12-20T10:37:25;14.10;99.90
20288;DHT22;10303;51.960;8.372;2022-12-20T10:39:51;14.20;99.90
20288;DHT22;10303;51.960;8.372;2022-12-20T10:42:41;14.20;99.90
20288;DHT22;10303;51.960;8.372;2022-12-20T10:45:35;14.20;99.90
20288;DHT22;10303;51.960;8.372;2022-12-20T10:48:06;14.30;99.90
20288;DHT22;10303;51.960;8.372;2022-12-20T10:51:01;14.30;99.90
20288;DHT22;10303;51.960;8.372;2022-12-20T10:56:25;14.40;99.90
20288;DHT22;10303;51.960;8.372;2022-12-20T10:58:57;14.50;99.90
20288;DHT22;10303;51.960;8.372;2022-12-20T11:01:44;14.60;99.90
20288;DHT22;10303;51.960;8.372;2022-12-20T11:04:34;14.60;99.90
20288;DHT22;10303;51.960;8.372;2022-12-20T11:07:26;14.60;99.90
20288;DHT22;10303;51.960;8.372;2022-12-20T11:09:57;14.70;99.90
20288;DHT22;10303;51.960;8.372;2022-12-20T11:12:25;14.80;99.90
20288;DHT22;10303;51.960;8.372;2022-12-20T11:15:10;14.80;99.90
20288;DHT22;10303;51.960;8.372;2022-12-20T11:17:46;14.80;99.90
20288;DHT22;10303;51.960;8.372;2022-12-20T11:20:41;14.90;99.90
20288;DHT22;10303;51.960;8.372;2022-12-20T11:26:25;15.00;99.90
20288;DHT22;10303;51.960;8.372;2022-12-20T11:32:27;15.00;99.90
20288;DHT22;10303;51.960;8.372;2022-12-20T11:35:12;15.00;99.90
20288;DHT22;10303;51.960;8.372;2022-12-20T11:40:31;15.10;99.90
20288;DHT22;10303;51.960;8.372;2022-12-20T11:43:34;15.10;99.90
20288;DHT22;10303;51.960;8.372;2022-12-20T11:51:46;15.30;99.90
20288;DHT22;10303;51.960;8.372;2022-12-20T11:54:25;15.30;99.90
20288;DHT22;10303;51.960;8.372;2022-12-20T11:57:03;15.30;99.90
20288;DHT22;10303;51.960;8.372;2022-12-20T11:59:52;15.40;99.90
20288;DHT22;10303;51.960;8.372;2022-12-20T12:05:08;15.40;99.90
20288;DHT22;10303;51.960;8.372;2022-12-20T12:07:45;15.40;99.90
20288;DHT22;10303;51.960;8.372;2022-12-20T12:10:24;15.50;99.90
20288;DHT22;10303;51.960;8.372;2022-12-20T12:15:47;15.60;99.90
20288;DHT22;10303;51.960;8.372;2022-12-20T12:18:24;15.60;99.90
20288;DHT22;10303;51.960;8.372;2022-12-20T12:21:22;15.60;99.90
20288;DHT22;10303;51.960;8.372;2022-12-20T12:26:48;15.70;99.90
20288;DHT22;10303;51.960;8.372;2022-12-20T12:29:16;15.70;99.90
20288;DHT22;10303;51.960;8.372;2022-12-20T12:40:39;15.70;99.90
20288;DHT22;10303;51.960;8.372;2022-12-20T12:46:14;15.80;99.90
20288;DHT22;10303;51.960;8.372;2022-12-20T12:51:34;15.80;99.90
20288;DHT22;10303;51.960;8.372;2022-12-20T12:54:17;15.80;99.90
20288;DHT22;10303;51.960;8.372;2022-12-20T12:56:48;15.80;99.90
20288;DHT22;10303;51.960;8.372;2022-12-20T12:59:20;15.80;99.90
20288;DHT22;10303;51.960;8.372;2022-12-20T13:17:57;15.80;99.90
20288;DHT22;10303;51.960;8.372;2022-12-20T13:20:40;15.80;99.90
20288;DHT22;10303;51.960;8.372;2022-12-20T13:25:38;15.80;99.90
20288;DHT22;10303;51.960;8.372;2022-12-20T13:33:40;15.80;99.90
20288;DHT22;10303;51.960;8.372;2022-12-20T13:38:56;15.80;99.90
20288;DHT22;10303;51.960;8.372;2022-12-20T13:41:34;15.80;99.90
20288;DHT22;10303;51.960;8.372;2022-12-20T13:46:57;15.80;99.90
20288;DHT22;10303;51.960;8.372;2022-12-20T13:49:54;15.80;99.90
20288;DHT22;10303;51.960;8.372;2022-12-20T13:52:37;15.80;99.90
20288;DHT22;10303;51.960;8.372;2022-12-20T13:55:22;15.80;99.90
20288;DHT22;10303;51.960;8.372;2022-12-20T13:57:51;15.80;99.90
20288;DHT22;10303;51.960;8.372;2022-12-20T14:00:24;15.70;99.90
20288;DHT22;10303;51.960;8.372;2022-12-20T14:02:52;15.80;99.90
20288;DHT22;10303;51.960;8.372;2022-12-20T14:05:21;15.80;99.90
20288;DHT22;10303;51.960;8.372;2022-12-20T14:08:08;15.90;99.90
20288;DHT22;10303;51.960;8.372;2022-12-20T14:10:40;15.80;99.90
20288;DHT22;10303;51.960;8.372;2022-12-20T14:13:23;15.90;99.90
20288;DHT22;10303;51.960;8.372;2022-12-20T14:15:52;15.90;99.90
20288;DHT22;10303;51.960;8.372;2022-12-20T14:18:22;15.80;99.90
20288;DHT22;10303;51.960;8.372;2022-12-20T14:20:58;15.90;99.90
20288;DHT22;10303;51.960;8.372;2022-12-20T14:23:50;15.90;99.90
20288;DHT22;10303;51.960;8.372;2022-12-20T14:26:27;15.90;99.90
20288;DHT22;10303;51.960;8.372;2022-12-20T14:28:59;16.00;99.90
20288;DHT22;10303;51.960;8.372;2022-12-20T14:31:36;16.00;99.90
20288;DHT22;10303;51.960;8.372;2022-12-20T14:36:41;15.90;99.90
20288;DHT22;10303;51.960;8.372;2022-12-20T14:39:32;15.90;99.90
20288;DHT22;10303;51.960;8.372;2022-12-20T14:44:37;15.90;99.90
20288;DHT22;10303;51.960;8.372;2022-12-20T14:47:20;15.90;99.90
20288;DHT22;10303;51.960;8.372;2022-12-20T14:49:57;15.90;99.90
20288;DHT22;10303;51.960;8.372;2022-12-20T14:52:35;15.80;99.90
20288;DHT22;10303;51.960;8.372;2022-12-20T14:55:19;15.70;99.90
20288;DHT22;10303;51.960;8.372;2022-12-20T14:57:58;15.80;99.90
20288;DHT22;10303;51.960;8.372;2022-12-20T15:00:28;15.80;99.90
20288;DHT22;10303;51.960;8.372;2022-12-20T15:08:26;15.60;99.90
20288;DHT22;10303;51.960;8.372;2022-12-20T15:18:48;15.50;99.90
20288;DHT22;10303;51.960;8.372;2022-12-20T15:24:23;15.40;99.90
20288;DHT22;10303;51.960;8.372;2022-12-20T15:26:51;15.40;99.90
20288;DHT22;10303;51.960;8.372;2022-12-20T15:31:52;15.30;99.90
20288;DHT22;10303;51.960;8.372;2022-12-20T15:34:39;15.30;99.90
20288;DHT22;10303;51.960;8.372;2022-12-20T15:37:05;15.20;99.90
20288;DHT22;10303;51.960;8.372;2022-12-20T15:39:32;15.20;99.90
20288;DHT22;10303;51.960;8.372;2022-12-20T15:42:03;15.10;99.90
20288;DHT22;10303;51.960;8.372;2022-12-20T15:44:30;15.10;99.90
20288;DHT22;10303;51.960;8.372;2022-12-20T15:46:57;15.10;99.90
20288;DHT22;10303;51.960;8.372;2022-12-20T15:49:26;15.10;99.90
20288;DHT22;10303;51.960;8.372;2022-12-20T15:51:55;15.10;99.90
20288;DHT22;10303;51.960;8.372;2022-12-20T15:56:57;15.00;99.90
20288;DHT22;10303;51.960;8.372;2022-12-20T15:59:27;14.90;99.90
20288;DHT22;10303;51.960;8.372;2022-12-20T16:01:54;14.90;99.90
20288;DHT22;10303;51.960;8.372;2022-12-20T16:04:21;14.90;99.90
20288;DHT22;10303;51.960;8.372;2022-12-20T16:06:49;14.80;99.90
20288;DHT22;10303;51.960;8.372;2022-12-20T16:09:18;14.80;99.90
20288;DHT22;10303;51.960;8.372;2022-12-20T16:11:44;14.80;99.90
20288;DHT22;10303;51.960;8.372;2022-12-20T16:14:16;14.80;99.90
20288;DHT22;10303;51.960;8.372;2022-12-20T16:16:43;14.80;99.90
20288;DHT22;10303;51.960;8.372;2022-12-20T16:19:10;14.80;99.90
20288;DHT22;10303;51.960;8.372;2022-12-20T16:21:49;14.80;99.90
20288;DHT22;10303;51.960;8.372;2022-12-20T16:24:18;14.80;99.90
20288;DHT22;10303;51.960;8.372;2022-12-20T16:26:47;14.80;99.90
20288;DHT22;10303;51.960;8.372;2022-12-20T16:29:13;14.80;99.90
20288;DHT22;10303;51.960;8.372;2022-12-20T16:31:41;14.70;99.90
20288;DHT22;10303;51.960;8.372;2022-12-20T16:34:15;14.70;99.90
20288;DHT22;10303;51.960;8.372;2022-12-20T16:36:43;14.70;99.90
20288;DHT22;10303;51.960;8.372;2022-12-20T16:39:10;14.70;99.90
20288;DHT22;10303;51.960;8.372;2022-12-20T16:41:37;14.70;99.90
20288;DHT22;10303;51.960;8.372;2022-12-20T16:44:14;14.70;99.90
20288;DHT22;10303;51.960;8.372;2022-12-20T16:46:40;14.70;99.90
20288;DHT22;10303;51.960;8.372;2022-12-20T16:49:07;14.60;99.90
20288;DHT22;10303;51.960;8.372;2022-12-20T16:51:41;14.60;99.90
20288;DHT22;10303;51.960;8.372;2022-12-20T16:54:20;14.60;99.90
20288;DHT22;10303;51.960;8.372;2022-12-20T16:56:49;14.60;99.90
20288;DHT22;10303;51.960;8.372;2022-12-20T16:59:24;14.60;99.90
20288;DHT22;10303;51.960;8.372;2022-12-20T17:01:55;14.50;99.90
20288;DHT22;10303;51.960;8.372;2022-12-20T17:04:22;14.50;99.90
20288;DHT22;10303;51.960;8.372;2022-12-20T17:06:49;14.50;99.90
20288;DHT22;10303;51.960;8.372;2022-12-20T17:09:15;14.50;99.90
20288;DHT22;10303;51.960;8.372;2022-12-20T17:11:42;14.50;99.90
20288;DHT22;10303;51.960;8.372;2022-12-20T17:14:11;14.50;99.90
20288;DHT22;10303;51.960;8.372;2022-12-20T17:16:38;14.50;99.90
20288;DHT22;10303;51.960;8.372;2022-12-20T17:19:05;14.50;99.90
20288;DHT22;10303;51.960;8.372;2022-12-20T17:21:37;14.50;99.90
20288;DHT22;10303;51.960;8.372;2022-12-20T17:24:20;14.40;99.90
20288;DHT22;10303;51.960;8.372;2022-12-20T17:26:48;14.40;99.90
20288;DHT22;10303;51.960;8.372;2022-12-20T17:29:14;14.40;99.90
20288;DHT22;10303;51.960;8.372;2022-12-20T17:31:42;14.40;99.90
20288;DHT22;10303;51.960;8.372;2022-12-20T17:34:19;14.40;99.90
20288;DHT22;10303;51.960;8.372;2022-12-20T17:36:56;14.40;99.90
20288;DHT22;10303;51.960;8.372;2022-12-20T17:39:23;14.30;99.90
20288;DHT22;10303;51.960;8.372;2022-12-20T17:41:51;14.30;99.90
20288;DHT22;10303;51.960;8.372;2022-12-20T17:44:22;14.30;99.90
20288;DHT22;10303;51.960;8.372;2022-12-20T17:46:51;14.30;99.90
20288;DHT22;10303;51.960;8.372;2022-12-20T17:49:20;14.30;99.90
20288;DHT22;10303;51.960;8.372;2022-12-20T17:51:48;14.30;99.90
20288;DHT22;10303;51.960;8.372;2022-12-20T17:54:18;14.20;99.90
20288;DHT22;10303;51.960;8.372;2022-12-20T17:56:47;14.30;99.90
20288;DHT22;10303;51.960;8.372;2022-12-20T17:59:14;14.20;99.90
20288;DHT22;10303;51.960;8.372;2022-12-20T18:01:41;14.20;99.90
20288;DHT22;10303;51.960;8.372;2022-12-20T18:04:11;14.20;99.90
20288;DHT22;10303;51.960;8.372;2022-12-20T18:06:40;14.20;99.90